To NAV CANADA Home Page Login to a new session Search on AWWS site Disclaimer Vers la page française équivalente Tips FAQ What's new on the site To the Forecasts and Observations / NOTAM section To "File a Flight Plan" website Publications and other links Update of the User's profile FIC Telephone Numbers My Weather Data Folder Route Weather Data Regional Weather Data Local Weather Data To the Forecasts and Observations / NOTAM section
Request Generated 10/02/2022 at 19:29:13 UTC . Weather information available at that time is displayed.


Go to a specific product

Save this request - Inactive

METAR/TAF

OTTAWA/MACDONALD-CARTIER INTL/ON    

METAR CYOW 021900Z 03010G15KT 15SM FEW240 13/M02 A3038 RMK CI1 SLP294=
METAR CYOW 021800Z 03011KT 350V060 15SM FEW240 13/M01 A3040 RMK CI1 CI TR SLP298=
METAR CYOW 021700Z 05012G18KT 15SM FEW240 11/M02 A3041 RMK CI1 CI TR SLP304=

TAF CYOW 021740Z 0218/0318 04012KT P6SM FEW240
BECMG 0222/0224 02008KT
FM030300 VRB03KT P6SM SKC PROB30 0308/0313 1SM BR
RMK NXT FCST BY 022100Z

OTTAWA/GATINEAU/QC    

METAR CYND 021900Z 03008KT 010V100 15SM FEW240 14/M02 A3038 RMK CI1 CI TR SLP291=
METAR CYND 021800Z 04006KT 330V080 15SM FEW240 13/M01 A3039 RMK CI2 SLP296=
METAR CYND 021700Z 07007KT 15SM FEW240 12/M01 A3041 RMK CI1 CI TR SLP302=

TAF CYND 021740Z 0218/0301 07008KT P6SM FEW240
BECMG 0222/0224 VRB03KT
RMK NXT FCST BY 031300Z


GRAPHICAL FA CLOUDS & WEATHER FORECASTS
To the Product Selector
Graphical FA gfacn33      

GRAPHICAL FA ICING, TURBULENCE & FREEZING LEVEL FORECASTS
To the Product Selector
Graphical FA gfacn33      

Your time UTC time
Weather data provided by Environment Canada and NAV CANADA